Cypress, IL (62923)

11:59 AM CST on February 01, 2015 (GMT -0600)
Hidden River Farms | Change Station
CLOSE
Current Station
Personal Weather Station
Location: Buncombe, IL
Elevation: 466 ft
Nearby Weather Stations

Elev 466 ft 37.47 °N, 89.11 °W | Updated 2 seconds ago

Rain
Rain
43.7 °F
Feels Like 41 °F
N
4.9
Wind Variable Wind from South
Gusts 6.0 mph

Today
High -- | Low -- °F
--% Chance of Precip.
Yesterday
High -- | Low -- °F
Precip. -- in
6:59 AM 5:20 PM
Waxing Gibbous, 95% visible
Pressure 29.72 in
Visibility 2.0 miles
Clouds Overcast 400 ft
Windchill 41 °F
Dew Point 43 °F
Humidity 96%
Rainfall 0.58 in
Snow Depth Not available.
UV 1 out of 12
Pollen .30 out of 12
Air Quality Not available.
Flu Activity Not available.
METAR KM30 011735Z AUTO 17003KT 2SM +DZ OVC004 08/08 A2972 RMK AO2 P0002 T00830083

More Conditions Fewer Conditions

Pressure 29.72 in
Visibility 2.0 miles
Clouds Overcast 400 ft
Windchill 41 °F
Dew Point 43 °F
Humidity 96%
Rainfall 0.58 in
Snow Depth Not available.
UV 1 out of 12
Pollen .30 out of 12
Air Quality Not available.
Flu Activity Not available.
METAR KM30 011735Z AUTO 17003KT 2SM +DZ OVC004 08/08 A2972 RMK AO2 P0002 T00830083

More Conditions Fewer Conditions

10-Day Weather Forecast

Almanac

Astronomy

Feb. 01, 2015 Rise Set
Actual Time
Civil Twilight
Nautical Twilight
Astronomical Twilight
Moon
Length of Visible Light
Length of Day
Tomorrow will be .
, % of the Moon is Illuminated

Today's Extremes

State Highs State Lows

Community

WunderPhotos

Upload Photos

1,792,408 photos uploaded!

WunderBlogs® & News

Nearby

Air Quality

  Air Quality AQ Index Pollutant
Not available.

Snow Depth

Station Depth Elevation

Earthquake Activity

City Distance Mag. Time & Date
Minimum magnitude displayed is 2.5.

Coastal Water Temperatures

Place Temperature

Nearby Weather Stations